メインページ
METAR-TAF:

METAR-TAF

空港 :

キト, エクアドル

マリスカル・スクレ国際空港

緯度: 0-06-48S, 経度: 78-21-31W, 海抜: 2400m

現時点の気象観測

当レポートは1時間0分前の05:00(UTC)に作成
の風 3kt
気温 12°C
湿度 94%
気圧 1027 hPa
視程10km以上
高度500ftの雲は散在している
高度2300ftの千切れ雲あり

METAR: SEQM 250500Z 10003KT 9999 SCT005 BKN023 12/11 Q1027 NOSIG RMK A3034

時間: 01:00 (06:00 UTC)

予報

当レポートは1時間30分前の04:30(UTC)に作成
予報は25日の 06時(UTC)から 26日の 06時(UTC)まで有効
の風 kt
視程10km以上
高度500ftの雲はほとんどない
高度7000ftの雲は散在している
25日の 1200時(UTC)から
変向風 3kt
視程10km以上
高度3000ftの雲は散在している
高度10000ftの雲は散在している
25日の 1800時(UTC)から
の風 12kt
視程10km以上
高度3000ftの千切れ雲あり
高度10000ftの雲は散在している
25日の 20時(UTC)から 25日の 23時(UTC)まで一時的に
高度3000ftの千切れ雲あり, 塔状積雲.
高度10000ftの雲は散在している
にわか雨
26日の 0000時(UTC)から
北/北東の風 4kt
視程10km以上
高度500ftの雲はほとんどない
高度2000ftの千切れ雲あり

TAF: SEQM 250430Z 2506/2606 00000KT 9999 FEW005 SCT070 FM251200 VRB03KT 9999 SCT030 SCT100 FM251800 36012KT 9999 BKN030 SCT100 TEMPO 2520/2523 SHRA BKN030TCU SCT100 FM260000 03004KT 9999 FEW005 BKN020 TX22/2519 TN10/2511Z

4,000以上の空港の気象観測と天気予報(METAR報とTAF報)

利用可能な観測所は地図上に黄色い丸と赤い丸で示す。

丸の上にカーソルを重ねると観測所名を参照できる。

次にクリックすると気象観測と天気予報を参照できる。

マップの切り替え:黒色「×」印の緑ボタンをクリックして拡大、「-」印の緑ボタンをクリックして縮小、緑色の三角印をクリックして隣りの地図に切り替え


METAR-TAF: